Time;durP1;ratioP1;P1;durP2;ratioP2;P2;SDS_P1;SDS_P2;PMS_P1;PMS_P2;Temp;Humidity;BMP_temperature;BMP_pressure;BME280_temperature;BME280_humidity;BME280_pressure;Samples;Min_cycle;Max_cycle;Signal;HPM_P1;HPM_P2
2021/12/30 00:01:00;;;;;;;3.90;1.52;;;;;;;;;;5048852;28;20057;-74
2021/12/30 00:03:27;;;;;;;2.67;1.52;;;;;;;;;;5048142;28;20500;-74
2021/12/30 00:05:53;;;;;;;4.70;1.63;;;;;;;;;;5049171;28;20081;-74
2021/12/30 00:08:22;;;;;;;6.10;1.60;;;;;;;;;;5049227;28;20132;-74
2021/12/30 00:10:48;;;;;;;;;;;;;;;;;;5049452;28;20442;-74
2021/12/30 00:13:15;;;;;;;2.22;1.30;;;;;;;;;;5047589;28;19924;-74
2021/12/30 00:15:41;;;;;;;3.80;1.30;;;;;;;;;;5048284;28;20558;-74
2021/12/30 00:18:09;;;;;;;4.45;1.48;;;;;;;;;;5048514;28;20044;-74
2021/12/30 00:20:36;;;;;;;3.83;1.65;;;;;;;;;;5047937;28;20092;-75
2021/12/30 00:23:04;;;;;;;3.30;1.38;;;;;;;;;;5046770;28;20122;-75
2021/12/30 00:25:37;;;;;;;2.63;1.10;;;;;;;;;;5048142;28;20129;-75
2021/12/30 00:28:07;;;;;;;3.17;1.00;;;;;;;;;;5048290;28;20056;-74
2021/12/30 00:30:34;;;;;;;2.85;1.38;;;;;;;;;;5047361;28;20515;-74
2021/12/30 00:33:00;;;;;;;2.20;1.30;;;;;;;;;;5047963;28;20461;-74
2021/12/30 00:35:26;;;;;;;4.63;1.67;;;;;;;;;;5047858;28;20053;-74
2021/12/30 00:37:52;;;;;;;3.75;1.40;;;;;;;;;;5047722;28;20044;-74
2021/12/30 00:40:18;;;;;;;3.42;1.25;;;;;;;;;;5047713;28;20135;-74
2021/12/30 00:42:44;;;;;;;3.60;1.48;;;;;;;;;;5047947;28;20045;-76
2021/12/30 00:45:10;;;;;;;3.47;1.48;;;;;;;;;;5047711;28;20045;-75
2021/12/30 00:47:36;;;;;;;4.53;1.35;;;;;;;;;;5048112;28;20052;-76
2021/12/30 00:50:02;;;;;;;3.53;1.23;;;;;;;;;;5046629;28;20048;-75
2021/12/30 00:52:28;;;;;;;2.60;1.20;;;;;;;;;;5047715;28;20053;-76
2021/12/30 00:54:54;;;;;;;3.35;1.40;;;;;;;;;;5047994;28;20602;-75
2021/12/30 00:57:21;;;;;;;3.35;1.38;;;;;;;;;;5047132;28;20040;-75
2021/12/30 00:59:47;;;;;;;2.45;1.15;;;;;;;;;;5048423;28;20139;-75
2021/12/30 01:02:13;;;;;;;3.17;1.38;;;;;;;;;;5048371;28;20037;-75
2021/12/30 01:04:39;;;;;;;2.47;1.27;;;;;;;;;;5046940;28;20403;-75
2021/12/30 01:07:05;;;;;;;3.30;1.30;;;;;;;;;;5047821;28;20045;-75
2021/12/30 01:09:31;;;;;;;4.25;1.13;;;;;;;;;;5048443;28;20063;-75
2021/12/30 01:11:58;;;;;;;2.47;1.10;;;;;;;;;;5009702;28;1107597;-75
2021/12/30 01:14:27;;;;;;;3.13;1.30;;;;;;;;;;5048425;28;20064;-75
2021/12/30 01:16:58;;;;;;;5.07;1.63;;;;;;;;;;5047598;28;21079;-75
2021/12/30 01:19:42;;;;;;;3.10;1.13;;;;;;;;;;5048828;28;20128;-75
2021/12/30 01:22:10;;;;;;;2.45;1.20;;;;;;;;;;5048690;28;20045;-75
2021/12/30 01:24:36;;;;;;;2.08;1.10;;;;;;;;;;5048791;28;20137;-75
2021/12/30 01:27:03;;;;;;;3.00;1.20;;;;;;;;;;5047725;28;20073;-75
2021/12/30 01:29:30;;;;;;;2.33;1.10;;;;;;;;;;5030894;28;20044;-75
2021/12/30 01:31:56;;;;;;;2.92;1.10;;;;;;;;;;5048280;28;20523;-75
2021/12/30 01:34:23;;;;;;;3.28;1.40;;;;;;;;;;5047380;28;20045;-76
2021/12/30 01:36:49;;;;;;;1.90;1.13;;;;;;;;;;5048909;28;20127;-76
2021/12/30 01:39:17;;;;;;;3.45;1.20;;;;;;;;;;5031002;28;20045;-76
2021/12/30 01:41:44;;;;;;;3.50;1.10;;;;;;;;;;5048207;28;20131;-76
2021/12/30 01:44:10;;;;;;;2.22;1.10;;;;;;;;;;5048695;28;20041;-76
2021/12/30 01:46:40;;;;;;;3.63;1.20;;;;;;;;;;5048526;28;20707;-76
2021/12/30 01:49:07;;;;;;;2.15;1.15;;;;;;;;;;5048617;28;20491;-76
2021/12/30 01:51:33;;;;;;;3.08;1.23;;;;;;;;;;5048264;28;20037;-76
2021/12/30 01:53:59;;;;;;;3.13;1.13;;;;;;;;;;5047457;28;20095;-76
2021/12/30 01:56:26;;;;;;;2.97;1.17;;;;;;;;;;5047654;28;20045;-76
2021/12/30 01:58:53;;;;;;;3.70;1.38;;;;;;;;;;5047097;28;20045;-76
2021/12/30 02:01:20;;;;;;;2.50;1.15;;;;;;;;;;5048109;28;20048;-76
2021/12/30 02:03:46;;;;;;;3.47;1.27;;;;;;;;;;5048521;28;20083;-76
2021/12/30 02:06:12;;;;;;;5.13;1.50;;;;;;;;;;5048554;28;20045;-76
2021/12/30 02:08:38;;;;;;;3.63;1.77;;;;;;;;;;5049948;28;20182;-75
2021/12/30 02:11:04;;;;;;;3.63;1.45;;;;;;;;;;5051668;28;20044;-76
2021/12/30 02:13:30;;;;;;;6.95;1.75;;;;;;;;;;5051922;28;20060;-75
2021/12/30 02:16:02;;;;;;;8.18;1.48;;;;;;;;;;5051489;28;20049;-75
2021/12/30 02:18:28;;;;;;;3.78;1.48;;;;;;;;;;5051196;28;20041;-75
2021/12/30 02:20:56;;;;;;;5.80;1.75;;;;;;;;;;5050798;28;20132;-76
2021/12/30 02:23:24;;;;;;;5.45;1.50;;;;;;;;;;5050256;28;20045;-75
2021/12/30 02:25:51;;;;;;;3.85;1.23;;;;;;;;;;5050795;28;20098;-76
2021/12/30 02:28:19;;;;;;;4.78;1.30;;;;;;;;;;5051173;28;20075;-75
2021/12/30 02:30:45;;;;;;;3.35;1.25;;;;;;;;;;5051420;28;20051;-75
2021/12/30 02:33:12;;;;;;;7.45;2.30;;;;;;;;;;5050901;28;20052;-75
2021/12/30 02:35:38;;;;;;;5.72;1.60;;;;;;;;;;5050387;28;20048;-75
2021/12/30 02:38:05;;;;;;;4.07;1.20;;;;;;;;;;5051136;28;20059;-75
2021/12/30 02:40:35;;;;;;;4.97;1.80;;;;;;;;;;5050646;28;20072;-75
2021/12/30 02:43:01;;;;;;;5.03;1.00;;;;;;;;;;5050911;28;20045;-74
2021/12/30 02:45:27;;;;;;;4.90;1.55;;;;;;;;;;5050892;28;20111;-74
2021/12/30 02:47:53;;;;;;;3.38;1.45;;;;;;;;;;5032325;28;20491;-74
2021/12/30 02:50:19;;;;;;;4.32;1.25;;;;;;;;;;5051154;28;20116;-74
2021/12/30 02:52:45;;;;;;;4.93;1.70;;;;;;;;;;5050690;28;20148;-74
2021/12/30 02:55:11;;;;;;;4.13;1.45;;;;;;;;;;5032952;28;20102;-74
2021/12/30 02:57:37;;;;;;;4.22;1.65;;;;;;;;;;5050407;28;20044;-75
2021/12/30 03:00:08;;;;;;;4.65;1.48;;;;;;;;;;5048969;28;20057;-75
2021/12/30 03:02:39;;;;;;;5.00;1.58;;;;;;;;;;5049399;28;20049;-75
2021/12/30 03:05:08;;;;;;;6.47;1.50;;;;;;;;;;5049432;28;20076;-75
2021/12/30 03:07:35;;;;;;;5.65;1.40;;;;;;;;;;5050439;28;20131;-75
2021/12/30 03:10:01;;;;;;;5.93;1.60;;;;;;;;;;5049986;28;20051;-74
2021/12/30 03:12:27;;;;;;;6.57;1.30;;;;;;;;;;5050244;28;20084;-74
2021/12/30 03:14:54;;;;;;;4.88;1.35;;;;;;;;;;5050207;28;20099;-77
2021/12/30 03:17:20;;;;;;;4.65;1.38;;;;;;;;;;5049583;28;20846;-77
2021/12/30 03:19:46;;;;;;;4.30;1.50;;;;;;;;;;5049073;28;20384;-77
2021/12/30 03:22:12;;;;;;;3.42;1.52;;;;;;;;;;5050184;28;20051;-77
2021/12/30 03:24:38;;;;;;;3.90;1.30;;;;;;;;;;5050319;28;20123;-77
2021/12/30 03:27:06;;;;;;;2.65;1.15;;;;;;;;;;5050013;28;20438;-76
2021/12/30 03:29:32;;;;;;;5.45;1.40;;;;;;;;;;5049510;28;20048;-78
2021/12/30 03:31:58;;;;;;;4.75;1.30;;;;;;;;;;5049879;28;20045;-77
2021/12/30 03:34:24;;;;;;;5.53;1.75;;;;;;;;;;5049611;28;20045;-77
2021/12/30 03:36:50;;;;;;;3.92;1.33;;;;;;;;;;5049540;28;20050;-77
2021/12/30 03:39:17;;;;;;;4.25;1.42;;;;;;;;;;5050243;28;20128;-77
2021/12/30 03:41:43;;;;;;;4.07;1.10;;;;;;;;;;5049415;28;20044;-77
2021/12/30 03:44:09;;;;;;;3.13;1.17;;;;;;;;;;5049728;28;20047;-77
2021/12/30 03:46:35;;;;;;;4.55;1.50;;;;;;;;;;5049611;28;20044;-77
2021/12/30 03:49:01;;;;;;;3.92;1.23;;;;;;;;;;5049644;28;20052;-77
2021/12/30 03:51:27;;;;;;;4.05;1.30;;;;;;;;;;5049536;28;20080;-76
2021/12/30 03:53:55;;;;;;;3.80;1.35;;;;;;;;;;5048986;28;20041;-75
2021/12/30 03:56:23;;;;;;;6.60;1.67;;;;;;;;;;5050218;28;20044;-75
2021/12/30 03:58:50;;;;;;;4.07;1.30;;;;;;;;;;5049216;28;20084;-76
2021/12/30 04:01:17;;;;;;;3.58;1.20;;;;;;;;;;5049813;28;20037;-75
2021/12/30 04:03:43;;;;;;;7.13;1.33;;;;;;;;;;5048337;28;20086;-75
2021/12/30 04:06:10;;;;;;;3.00;1.50;;;;;;;;;;5048291;28;20399;-74
2021/12/30 04:08:36;;;;;;;4.32;1.20;;;;;;;;;;5048829;28;20056;-75
2021/12/30 04:11:03;;;;;;;8.52;1.30;;;;;;;;;;5049157;28;20048;-75
2021/12/30 04:13:29;;;;;;;3.55;1.52;;;;;;;;;;5049618;28;20045;-75
2021/12/30 04:15:55;;;;;;;6.78;1.30;;;;;;;;;;5048757;28;20162;-74
2021/12/30 04:18:21;;;;;;;4.72;1.55;;;;;;;;;;5047903;28;20076;-74
2021/12/30 04:20:47;;;;;;;13.88;1.40;;;;;;;;;;5049170;28;20055;-75
2021/12/30 04:23:14;;;;;;;5.53;1.50;;;;;;;;;;5049490;28;20461;-75
2021/12/30 04:25:40;;;;;;;2.97;1.02;;;;;;;;;;5049466;28;20040;-74
2021/12/30 04:28:06;;;;;;;2.40;1.15;;;;;;;;;;5049686;28;20072;-74
2021/12/30 04:30:33;;;;;;;3.80;1.40;;;;;;;;;;5049084;28;20052;-75
2021/12/30 04:32:59;;;;;;;4.38;1.30;;;;;;;;;;5048203;28;20037;-75
2021/12/30 04:35:25;;;;;;;3.60;1.10;;;;;;;;;;5048127;28;20041;-75
2021/12/30 04:37:51;;;;;;;3.33;1.20;;;;;;;;;;5049259;28;20411;-74
2021/12/30 04:40:17;;;;;;;4.60;1.40;;;;;;;;;;5048932;28;20076;-75
2021/12/30 04:42:44;;;;;;;4.38;1.45;;;;;;;;;;5049295;28;20041;-74
2021/12/30 04:45:11;;;;;;;2.50;1.27;;;;;;;;;;5048262;28;20556;-74
2021/12/30 04:47:40;;;;;;;4.68;1.50;;;;;;;;;;5049218;28;20051;-74
2021/12/30 04:50:06;;;;;;;;;;;;;;;;;;5049780;28;20049;-75
2021/12/30 04:52:32;;;;;;;4.50;1.20;;;;;;;;;;5048519;28;19931;-75
2021/12/30 04:54:58;;;;;;;4.20;1.38;;;;;;;;;;5049081;28;20048;-75
2021/12/30 04:57:24;;;;;;;4.28;1.27;;;;;;;;;;5049124;28;20052;-76
2021/12/30 04:59:51;;;;;;;9.18;1.55;;;;;;;;;;5049264;28;20501;-75
2021/12/30 05:02:17;;;;;;;21.27;2.72;;;;;;;;;;5049554;28;20427;-76
2021/12/30 05:04:43;;;;;;;6.40;1.73;;;;;;;;;;5048673;28;20122;-77
2021/12/30 05:07:09;;;;;;;5.28;1.75;;;;;;;;;;5048930;28;20487;-75
2021/12/30 05:09:35;;;;;;;8.23;1.80;;;;;;;;;;5048836;28;20560;-74
2021/12/30 05:12:01;;;;;;;7.45;1.80;;;;;;;;;;5048925;28;20430;-74
2021/12/30 05:14:28;;;;;;;6.13;1.40;;;;;;;;;;5047206;28;20114;-74
2021/12/30 05:16:55;;;;;;;7.90;1.83;;;;;;;;;;5049236;28;20052;-74
2021/12/30 05:19:21;;;;;;;4.47;1.67;;;;;;;;;;5049167;28;20071;-73
2021/12/30 05:21:48;;;;;;;7.20;2.30;;;;;;;;;;5047481;28;20495;-74
2021/12/30 05:24:15;;;;;;;5.10;1.90;;;;;;;;;;5048453;28;20041;-74
2021/12/30 05:26:41;;;;;;;6.05;1.75;;;;;;;;;;5048842;28;20059;-73
2021/12/30 05:29:09;;;;;;;4.55;1.55;;;;;;;;;;5048625;28;20045;-73
2021/12/30 05:31:35;;;;;;;7.03;1.73;;;;;;;;;;5048799;28;20041;-73
2021/12/30 05:34:01;;;;;;;7.57;1.85;;;;;;;;;;5048603;28;20127;-73
2021/12/30 05:36:28;;;;;;;5.32;1.60;;;;;;;;;;5047297;28;20045;-73
2021/12/30 05:38:54;;;;;;;5.65;1.98;;;;;;;;;;5048715;28;20523;-73
2021/12/30 05:41:22;;;;;;;6.07;1.70;;;;;;;;;;5048689;28;20049;-74
2021/12/30 05:43:48;;;;;;;4.28;1.35;;;;;;;;;;5050383;28;20076;-74
2021/12/30 05:46:14;;;;;;;5.32;1.77;;;;;;;;;;5051028;28;20455;-74
2021/12/30 05:48:41;;;;;;;7.90;1.77;;;;;;;;;;5052639;28;20041;-71
2021/12/30 05:51:07;;;;;;;4.50;1.50;;;;;;;;;;5052355;28;20490;-71
2021/12/30 05:53:33;;;;;;;4.85;1.40;;;;;;;;;;5052738;28;20049;-71
2021/12/30 05:55:59;;;;;;;4.95;2.25;;;;;;;;;;5052227;28;20507;-71
2021/12/30 05:58:25;;;;;;;3.78;1.77;;;;;;;;;;5050913;28;20117;-71
2021/12/30 06:00:51;;;;;;;4.38;1.50;;;;;;;;;;5050573;28;20041;-72
2021/12/30 06:03:19;;;;;;;6.63;1.60;;;;;;;;;;5052286;28;20049;-74
2021/12/30 06:05:49;;;;;;;4.57;1.58;;;;;;;;;;5051972;28;20056;-74
2021/12/30 06:08:15;;;;;;;7.32;1.98;;;;;;;;;;5051679;28;20045;-74
2021/12/30 06:10:43;;;;;;;3.17;1.20;;;;;;;;;;5050236;28;20045;-74
2021/12/30 06:13:09;;;;;;;4.88;1.50;;;;;;;;;;5051668;28;20057;-74
2021/12/30 06:15:35;;;;;;;3.75;1.33;;;;;;;;;;5051957;28;20045;-74
2021/12/30 06:18:01;;;;;;;4.78;1.40;;;;;;;;;;5050695;28;20041;-75
2021/12/30 06:20:28;;;;;;;5.13;1.65;;;;;;;;;;5051739;28;20045;-75
2021/12/30 06:22:54;;;;;;;4.18;1.50;;;;;;;;;;5051353;28;20049;-74
2021/12/30 06:25:20;;;;;;;4.43;1.63;;;;;;;;;;5051878;28;20465;-75
2021/12/30 06:27:46;;;;;;;5.43;1.40;;;;;;;;;;5050388;28;20131;-71
2021/12/30 06:30:12;;;;;;;6.25;2.28;;;;;;;;;;5051476;28;20041;-73
2021/12/30 06:32:38;;;;;;;8.15;2.03;;;;;;;;;;5050648;28;20037;-73
2021/12/30 06:35:07;;;;;;;4.82;1.30;;;;;;;;;;5051184;28;20048;-73
2021/12/30 06:37:33;;;;;;;5.00;1.40;;;;;;;;;;5051143;28;20049;-73
2021/12/30 06:39:59;;;;;;;3.58;1.13;;;;;;;;;;5049566;28;20041;-72
2021/12/30 06:42:25;;;;;;;5.03;1.30;;;;;;;;;;5050766;28;20051;-72
2021/12/30 06:44:51;;;;;;;4.28;1.58;;;;;;;;;;5050801;28;20049;-72
2021/12/30 06:47:18;;;;;;;4.55;1.42;;;;;;;;;;5050820;28;20128;-72
2021/12/30 06:49:44;;;;;;;5.53;1.52;;;;;;;;;;5050297;28;20103;-72
2021/12/30 06:52:11;;;;;;;4.13;1.60;;;;;;;;;;5050765;28;20114;-73
2021/12/30 06:54:37;;;;;;;4.85;1.50;;;;;;;;;;5050107;28;20052;-72
2021/12/30 06:57:06;;;;;;;4.63;1.70;;;;;;;;;;5050809;28;20110;-72
2021/12/30 06:59:32;;;;;;;5.63;1.42;;;;;;;;;;5050894;28;20476;-73
2021/12/30 07:01:58;;;;;;;5.65;1.48;;;;;;;;;;5050422;28;20037;-73
2021/12/30 07:04:25;;;;;;;3.70;1.55;;;;;;;;;;5050089;28;20045;-73
2021/12/30 07:06:52;;;;;;;3.88;1.60;;;;;;;;;;5050404;28;20119;-74
2021/12/30 07:09:18;;;;;;;5.25;1.30;;;;;;;;;;5050254;28;20053;-73
2021/12/30 07:11:45;;;;;;;3.67;1.30;;;;;;;;;;5050098;28;20088;-74
2021/12/30 07:14:11;;;;;;;5.00;1.90;;;;;;;;;;5050236;28;20095;-74
2021/12/30 07:16:37;;;;;;;4.03;1.30;;;;;;;;;;5050317;28;20131;-74
2021/12/30 07:19:03;;;;;;;2.65;1.10;;;;;;;;;;5050023;28;20053;-75
2021/12/30 07:21:29;;;;;;;6.65;1.63;;;;;;;;;;5049498;28;20091;-74
2021/12/30 07:23:55;;;;;;;6.70;2.05;;;;;;;;;;5050579;28;20049;-74
2021/12/30 07:26:21;;;;;;;4.25;1.60;;;;;;;;;;5050572;28;20049;-74
2021/12/30 07:28:47;;;;;;;3.15;1.20;;;;;;;;;;5050588;28;20049;-74
2021/12/30 07:31:14;;;;;;;5.55;1.70;;;;;;;;;;5050012;28;20060;-75
2021/12/30 07:33:40;;;;;;;4.80;1.30;;;;;;;;;;5050425;28;20045;-74
2021/12/30 07:36:06;;;;;;;6.10;1.50;;;;;;;;;;5049447;28;20076;-73
2021/12/30 07:38:32;;;;;;;3.22;1.38;;;;;;;;;;5050598;28;20113;-73
2021/12/30 07:40:58;;;;;;;3.85;1.52;;;;;;;;;;5048888;28;20041;-74
2021/12/30 07:43:24;;;;;;;3.58;1.55;;;;;;;;;;5050014;28;20056;-74
2021/12/30 07:45:50;;;;;;;4.05;1.38;;;;;;;;;;5050507;28;20048;-74
2021/12/30 07:48:18;;;;;;;3.88;1.35;;;;;;;;;;5050145;28;20051;-73
2021/12/30 07:50:44;;;;;;;3.13;1.17;;;;;;;;;;5049972;28;20053;-74
2021/12/30 07:53:10;;;;;;;3.17;1.20;;;;;;;;;;5049711;28;20048;-75
2021/12/30 07:55:36;;;;;;;3.08;1.02;;;;;;;;;;5049425;28;20037;-75
2021/12/30 07:58:02;;;;;;;3.03;1.23;;;;;;;;;;5047710;28;20048;-73
2021/12/30 08:00:29;;;;;;;3.13;1.52;;;;;;;;;;5049514;28;20072;-73
2021/12/30 08:02:55;;;;;;;3.33;1.40;;;;;;;;;;5049374;28;20079;-75
2021/12/30 08:05:21;;;;;;;4.65;1.60;;;;;;;;;;5049037;28;20037;-76
2021/12/30 08:07:48;;;;;;;5.90;1.50;;;;;;;;;;5049022;28;20044;-75
2021/12/30 08:10:15;;;;;;;6.75;1.63;;;;;;;;;;5049460;28;20083;-75
2021/12/30 08:12:43;;;;;;;5.78;1.40;;;;;;;;;;5049709;28;20064;-74
2021/12/30 08:15:10;;;;;;;3.78;1.65;;;;;;;;;;5049749;28;20060;-74
2021/12/30 08:17:37;;;;;;;6.88;1.60;;;;;;;;;;5049749;28;20052;-73
2021/12/30 08:20:05;;;;;;;4.78;1.17;;;;;;;;;;5048445;28;20052;-73
2021/12/30 08:22:31;;;;;;;2.70;1.33;;;;;;;;;;5049724;28;20073;-73
2021/12/30 08:24:57;;;;;;;8.02;1.40;;;;;;;;;;5048863;28;20095;-74
2021/12/30 08:27:23;;;;;;;4.47;1.65;;;;;;;;;;5049598;28;20037;-74
2021/12/30 08:29:49;;;;;;;4.30;1.63;;;;;;;;;;5047615;28;20511;-74
2021/12/30 08:32:16;;;;;;;4.97;1.58;;;;;;;;;;5049565;28;20036;-74
2021/12/30 08:34:43;;;;;;;5.47;1.42;;;;;;;;;;5048457;28;20057;-74
2021/12/30 08:37:09;;;;;;;5.47;1.38;;;;;;;;;;5049264;28;20049;-74
2021/12/30 08:39:36;;;;;;;5.70;1.40;;;;;;;;;;5049309;28;20531;-76
2021/12/30 08:42:03;;;;;;;5.38;1.40;;;;;;;;;;5049200;28;20125;-77
2021/12/30 08:44:29;;;;;;;3.05;1.15;;;;;;;;;;5049360;28;20128;-77
2021/12/30 08:46:55;;;;;;;4.50;1.23;;;;;;;;;;5061116;28;20532;-77
2021/12/30 08:49:22;;;;;;;4.25;1.55;;;;;;;;;;5053159;28;20087;-76
2021/12/30 08:51:48;;;;;;;4.13;1.17;;;;;;;;;;5065387;28;20033;-76
2021/12/30 08:54:14;;;;;;;4.75;1.65;;;;;;;;;;5069295;28;20036;-76
2021/12/30 08:56:40;;;;;;;3.50;1.40;;;;;;;;;;5068887;28;20422;-76
2021/12/30 08:59:07;;;;;;;7.38;1.60;;;;;;;;;;5069019;28;20048;-76
2021/12/30 09:01:33;;;;;;;6.40;1.30;;;;;;;;;;5069550;28;20037;-77
2021/12/30 09:03:59;;;;;;;4.53;1.35;;;;;;;;;;5069484;28;20450;-77
2021/12/30 09:06:25;;;;;;;6.20;1.30;;;;;;;;;;5068673;28;20542;-76
2021/12/30 09:08:51;;;;;;;3.33;1.30;;;;;;;;;;5069120;28;20044;-76
2021/12/30 09:11:17;;;;;;;3.45;1.40;;;;;;;;;;5069236;28;20066;-76
2021/12/30 09:13:43;;;;;;;4.28;1.40;;;;;;;;;;5068976;28;20063;-76
2021/12/30 09:16:09;;;;;;;3.97;1.17;;;;;;;;;;5068105;28;20135;-76
2021/12/30 09:18:35;;;;;;;2.47;1.10;;;;;;;;;;5071030;28;20052;-76
2021/12/30 09:21:01;;;;;;;3.53;1.40;;;;;;;;;;5073423;28;20041;-76
2021/12/30 09:23:27;;;;;;;3.47;1.00;;;;;;;;;;5072123;28;20490;-75
2021/12/30 09:25:56;;;;;;;9.48;1.50;;;;;;;;;;5073054;28;20037;-74
2021/12/30 09:28:24;;;;;;;5.73;1.40;;;;;;;;;;5072857;28;20053;-74
2021/12/30 09:30:50;;;;;;;2.70;0.90;;;;;;;;;;5072797;28;20442;-75
2021/12/30 09:33:16;;;;;;;4.55;1.10;;;;;;;;;;5073211;28;20040;-75
2021/12/30 09:35:47;;;;;;;2.55;1.00;;;;;;;;;;5072804;28;20045;-75
2021/12/30 09:38:14;;;;;;;3.90;1.30;;;;;;;;;;5072666;28;20059;-75
2021/12/30 09:40:40;;;;;;;3.97;1.08;;;;;;;;;;5073001;28;20040;-74
2021/12/30 09:43:09;;;;;;;8.55;1.55;;;;;;;;;;5072522;28;20033;-75
2021/12/30 09:45:36;;;;;;;2.58;0.90;;;;;;;;;;5071521;28;20056;-75
2021/12/30 09:48:04;;;;;;;4.82;1.40;;;;;;;;;;5072850;28;20099;-74
2021/12/30 09:50:36;;;;;;;3.45;1.20;;;;;;;;;;5071466;28;20044;-76
2021/12/30 09:53:03;;;;;;;3.05;1.48;;;;;;;;;;5071091;28;20044;-74
2021/12/30 09:55:29;;;;;;;2.55;1.00;;;;;;;;;;5070756;28;20063;-75
2021/12/30 09:57:55;;;;;;;2.60;1.00;;;;;;;;;;5071872;28;20049;-73
2021/12/30 10:00:22;;;;;;;2.72;1.00;;;;;;;;;;5072267;28;20123;-75
2021/12/30 10:02:48;;;;;;;2.97;1.10;;;;;;;;;;5070893;28;20048;-74
2021/12/30 10:05:19;;;;;;;1.65;0.95;;;;;;;;;;5071769;28;20514;-75
2021/12/30 10:07:45;;;;;;;1.73;0.82;;;;;;;;;;5072685;28;20094;-74
2021/12/30 10:10:32;;;;;;;2.30;1.00;;;;;;;;;;5072269;28;20140;-75
2021/12/30 10:12:59;;;;;;;3.05;0.93;;;;;;;;;;5072206;28;20053;-74
2021/12/30 10:15:28;;;;;;;5.45;1.00;;;;;;;;;;5072370;28;20044;-74
2021/12/30 10:17:57;;;;;;;2.97;1.30;;;;;;;;;;5071712;28;20425;-73
2021/12/30 10:20:27;;;;;;;3.45;1.02;;;;;;;;;;5071785;28;20403;-76
2021/12/30 10:22:54;;;;;;;2.30;0.90;;;;;;;;;;5070071;28;20435;-73
2021/12/30 10:25:26;;;;;;;3.83;1.23;;;;;;;;;;5060909;28;20060;-73
2021/12/30 10:27:53;;;;;;;5.30;1.08;;;;;;;;;;5072318;28;20473;-72
2021/12/30 10:30:32;;;;;;;4.40;1.27;;;;;;;;;;5072506;28;20076;-72
2021/12/30 10:33:09;;;;;;;3.50;1.15;;;;;;;;;;5070542;28;20043;-74
2021/12/30 10:35:35;;;;;;;4.22;1.40;;;;;;;;;;5072351;28;20080;-75
2021/12/30 10:38:04;;;;;;;3.10;1.33;;;;;;;;;;5072458;28;20106;-73
2021/12/30 10:40:31;;;;;;;3.47;1.13;;;;;;;;;;5070774;28;20098;-74
2021/12/30 10:43:18;;;;;;;4.07;1.40;;;;;;;;;;5071281;28;20452;-74
2021/12/30 10:46:00;;;;;;;2.90;1.20;;;;;;;;;;5070867;28;20044;-75
2021/12/30 10:48:26;;;;;;;4.82;1.30;;;;;;;;;;5071275;28;20045;-74
2021/12/30 10:51:08;;;;;;;3.60;1.45;;;;;;;;;;5070023;28;20040;-75
2021/12/30 10:53:36;;;;;;;2.78;1.08;;;;;;;;;;5070827;28;20048;-74
2021/12/30 10:56:20;;;;;;;2.58;1.30;;;;;;;;;;5071140;28;20056;-75
2021/12/30 10:58:46;;;;;;;3.78;1.00;;;;;;;;;;5071453;28;20146;-75
2021/12/30 11:01:17;;;;;;;3.92;1.42;;;;;;;;;;5070585;28;20059;-74
2021/12/30 11:03:54;;;;;;;3.90;1.38;;;;;;;;;;5070154;28;20044;-74
2021/12/30 11:06:22;;;;;;;4.00;1.30;;;;;;;;;;5068575;28;20041;-76
2021/12/30 11:08:50;;;;;;;3.88;1.20;;;;;;;;;;5071291;28;20052;-77
2021/12/30 11:11:23;;;;;;;4.30;1.50;;;;;;;;;;5070622;28;20055;-77
2021/12/30 11:14:04;;;;;;;5.32;1.50;;;;;;;;;;5071121;28;20044;-75
2021/12/30 11:16:30;;;;;;;3.35;1.20;;;;;;;;;;5066269;28;20127;-75
2021/12/30 11:18:57;;;;;;;4.53;1.63;;;;;;;;;;5070084;28;20739;-77
2021/12/30 11:21:40;;;;;;;3.45;1.05;;;;;;;;;;5070500;28;20044;-75
2021/12/30 11:24:07;;;;;;;4.10;1.85;;;;;;;;;;5063178;28;20139;-75
2021/12/30 11:26:33;;;;;;;4.22;1.40;;;;;;;;;;5090021;28;20040;-73
2021/12/30 11:29:01;;;;;;;4.20;1.77;;;;;;;;;;5089689;28;20051;-73
2021/12/30 11:31:28;;;;;;;5.82;1.50;;;;;;;;;;5089650;28;20044;-73
2021/12/30 11:33:54;;;;;;;5.50;1.50;;;;;;;;;;5090409;28;20108;-74
2021/12/30 11:36:20;;;;;;;3.60;1.35;;;;;;;;;;5089707;28;20052;-73
2021/12/30 11:38:46;;;;;;;5.55;1.30;;;;;;;;;;5090280;28;20044;-73
2021/12/30 11:41:19;;;;;;;4.53;1.58;;;;;;;;;;5089752;28;20063;-75
2021/12/30 11:43:46;;;;;;;5.20;1.60;;;;;;;;;;5090592;28;20466;-73
2021/12/30 11:46:30;;;;;;;4.47;1.40;;;;;;;;;;5090202;28;20209;-74
2021/12/30 11:48:57;;;;;;;4.90;1.80;;;;;;;;;;5089296;28;20112;-74
2021/12/30 11:51:23;;;;;;;5.55;1.65;;;;;;;;;;5086201;28;20119;-75
2021/12/30 11:53:52;;;;;;;5.13;1.70;;;;;;;;;;5089599;28;20059;-75
2021/12/30 11:56:25;;;;;;;4.40;1.45;;;;;;;;;;5087922;28;20052;-76
2021/12/30 11:58:51;;;;;;;6.40;1.83;;;;;;;;;;5087685;28;20080;-74
2021/12/30 12:01:17;;;;;;;6.35;1.60;;;;;;;;;;5088522;28;20081;-74
2021/12/30 12:03:44;;;;;;;5.10;1.70;;;;;;;;;;5088136;28;20536;-75
2021/12/30 12:06:28;;;;;;;6.13;2.05;;;;;;;;;;5088446;28;20452;-77
2021/12/30 12:08:56;;;;;;;5.82;2.03;;;;;;;;;;5088379;28;20518;-77
2021/12/30 12:11:23;;;;;;;5.45;1.80;;;;;;;;;;5088068;28;20056;-77
2021/12/30 12:13:51;;;;;;;5.65;1.50;;;;;;;;;;5088569;28;20047;-75
2021/12/30 12:16:37;;;;;;;8.00;2.83;;;;;;;;;;5088415;28;20479;-75
2021/12/30 12:19:03;;;;;;;5.75;1.80;;;;;;;;;;5088006;28;20040;-74
2021/12/30 12:21:42;;;;;;;5.95;2.20;;;;;;;;;;5086483;28;20102;-75
2021/12/30 12:24:37;;;;;;;6.05;1.60;;;;;;;;;;5075425;28;20376;-76
2021/12/30 12:27:23;;;;;;;4.93;1.85;;;;;;;;;;5083111;28;20044;-76
2021/12/30 12:29:55;;;;;;;9.25;2.70;;;;;;;;;;5086593;28;20040;-75
2021/12/30 12:32:30;;;;;;;6.45;2.40;;;;;;;;;;5085355;28;20342;-77
2021/12/30 12:35:01;;;;;;;6.15;2.22;;;;;;;;;;5087352;28;20043;-77
2021/12/30 12:37:33;;;;;;;6.15;2.00;;;;;;;;;;5084839;28;20036;-76
2021/12/30 12:39:59;;;;;;;9.55;2.65;;;;;;;;;;5085809;28;20132;-76
2021/12/30 12:42:43;;;;;;;18.65;2.75;;;;;;;;;;5086283;28;20044;-76
2021/12/30 12:45:19;;;;;;;12.32;2.58;;;;;;;;;;5087223;28;20158;-73
2021/12/30 12:47:46;;;;;;;7.72;2.33;;;;;;;;;;5086562;28;20072;-73
2021/12/30 12:50:12;;;;;;;9.45;1.95;;;;;;;;;;5085919;28;20040;-73
2021/12/30 12:52:46;;;;;;;10.68;2.28;;;;;;;;;;5087127;28;20036;-74
2021/12/30 12:55:12;;;;;;;8.75;2.28;;;;;;;;;;5085626;28;20075;-73
2021/12/30 12:57:41;;;;;;;7.07;2.22;;;;;;;;;;5087132;28;20044;-74
2021/12/30 13:00:08;;;;;;;7.47;2.42;;;;;;;;;;5087239;28;20452;-74
2021/12/30 13:02:34;;;;;;;7.63;2.25;;;;;;;;;;5084877;28;20104;-75
2021/12/30 13:05:11;;;;;;;8.02;2.45;;;;;;;;;;5087137;28;20420;-75
2021/12/30 13:07:38;;;;;;;6.13;2.03;;;;;;;;;;5085513;28;20043;-75
2021/12/30 13:10:04;;;;;;;8.43;2.40;;;;;;;;;;5086507;28;20079;-75
2021/12/30 13:12:37;;;;;;;7.60;2.20;;;;;;;;;;5085276;28;20485;-75
2021/12/30 13:15:21;;;;;;;5.93;2.08;;;;;;;;;;5086334;28;20142;-75
2021/12/30 13:17:47;;;;;;;6.53;1.95;;;;;;;;;;5085579;28;20047;-76
2021/12/30 13:20:13;;;;;;;6.82;2.22;;;;;;;;;;5085804;28;20043;-75
2021/12/30 13:22:40;;;;;;;6.82;2.38;;;;;;;;;;5086953;28;20056;-75
2021/12/30 13:25:07;;;;;;;6.03;1.88;;;;;;;;;;5086911;28;20047;-75
2021/12/30 13:27:41;;;;;;;7.43;2.20;;;;;;;;;;5086678;28;20051;-75
2021/12/30 13:30:07;;;;;;;7.85;2.13;;;;;;;;;;5084777;28;20105;-76
2021/12/30 13:32:35;;;;;;;8.13;2.45;;;;;;;;;;5086762;28;20044;-75
2021/12/30 13:35:03;;;;;;;6.03;2.40;;;;;;;;;;5086053;28;20040;-74
2021/12/30 13:37:40;;;;;;;6.20;2.33;;;;;;;;;;5084447;28;20036;-74
2021/12/30 13:40:27;;;;;;;7.05;2.05;;;;;;;;;;5084791;28;20571;-74
2021/12/30 13:43:04;;;;;;;6.30;2.03;;;;;;;;;;5083528;28;20452;-74
2021/12/30 13:45:37;;;;;;;7.47;2.20;;;;;;;;;;5086629;28;20772;-74
2021/12/30 13:48:06;;;;;;;7.63;2.00;;;;;;;;;;5083081;28;20569;-74
2021/12/30 13:50:32;;;;;;;7.15;2.22;;;;;;;;;;5086787;28;20500;-75
2021/12/30 13:53:00;;;;;;;5.80;2.13;;;;;;;;;;5086151;28;20048;-74
2021/12/30 13:55:28;;;;;;;7.23;2.10;;;;;;;;;;5087387;28;20040;-74
2021/12/30 13:58:13;;;;;;;6.35;2.30;;;;;;;;;;5087336;28;20052;-74
2021/12/30 14:01:00;;;;;;;7.40;2.70;;;;;;;;;;5086447;28;20085;-74
2021/12/30 14:03:27;;;;;;;6.28;2.03;;;;;;;;;;5086458;28;20390;-75
2021/12/30 14:06:04;;;;;;;8.32;2.30;;;;;;;;;;5090715;28;20604;-74
2021/12/30 14:08:30;;;;;;;6.70;1.75;;;;;;;;;;5088964;28;20039;-74
2021/12/30 14:10:58;;;;;;;5.15;1.88;;;;;;;;;;5090003;28;20068;-74
2021/12/30 14:13:33;;;;;;;4.47;1.92;;;;;;;;;;5088981;28;20047;-75
2021/12/30 14:15:59;;;;;;;4.70;2.13;;;;;;;;;;5090540;28;20090;-75
2021/12/30 14:18:32;;;;;;;6.53;2.28;;;;;;;;;;5090331;28;20048;-74
2021/12/30 14:20:59;;;;;;;5.45;1.95;;;;;;;;;;5088658;28;20383;-75
2021/12/30 14:23:32;;;;;;;7.70;2.35;;;;;;;;;;5089165;28;20079;-74
2021/12/30 14:26:08;;;;;;;8.95;2.17;;;;;;;;;;5090588;28;20128;-75
2021/12/30 14:28:34;;;;;;;8.18;2.05;;;;;;;;;;5090063;28;20513;-73
2021/12/30 14:31:00;;;;;;;14.45;2.60;;;;;;;;;;5089938;28;20040;-74
2021/12/30 14:33:27;;;;;;;5.53;1.70;;;;;;;;;;5087484;28;20043;-74
2021/12/30 14:36:09;;;;;;;6.00;1.95;;;;;;;;;;5089775;28;20120;-74
2021/12/30 14:38:36;;;;;;;6.30;2.08;;;;;;;;;;5088362;28;20036;-74
2021/12/30 14:41:09;;;;;;;5.97;1.52;;;;;;;;;;5089907;28;20101;-75
2021/12/30 14:43:55;;;;;;;4.93;1.70;;;;;;;;;;5090022;28;20040;-75
2021/12/30 14:46:21;;;;;;;5.15;1.83;;;;;;;;;;5087402;28;20490;-74
2021/12/30 14:48:56;;;;;;;7.05;2.00;;;;;;;;;;5089721;28;20109;-75